MOL Paramount — 3ECH9 — position and weather

sailwx.info

Track history (hours):
 
Tides and Currents Weather Stations Pressure Air Temp Water Temp Dewpoint Dewpoint Depression Visibility Wind Speed Wind Dir Waves Ship Positions

MOL Paramount

Last reported at 2015-Mar-30 11:31 UTC. Time now 2015-Mar-30 13:02 UTC.
Position N 28°20' W 119°44'.

Length 293 m; draft 13.5 m.

Type: Cargo ship. MMSI: 371519000.

Date/timePositionNaut miles runAvg speedWind from/ knotsBaromVisibWave heightAir tempDewpointWater temp
2015-Mar-30 11:31N 28°20' W 119°44'1516.1
2015-Mar-30 10:33N 28°31' W 119°56'1616.2
2015-Mar-30 09:33N 28°43' W 120°08'1616.1
2015-Mar-30 08:33N 28°55' W 120°21'1616.3
2015-Mar-30 07:33N 29°07' W 120°33'1916.2
2015-Mar-30 06:23N 29°21' W 120°48'1316.1
2015-Mar-30 05:33N 29°32' W 120°58'1716.1
2015-Mar-30 04:28N 29°45' W 121°11'1617.9
2015-Mar-30 03:33N 29°57' W 121°24'1817.7
2015-Mar-30 02:33N 30°10' W 121°37'1616.3
2015-Mar-30 01:33N 30°22' W 121°50'1716.2
2015-Mar-30 00:32N 30°35' W 122°03'1716.1
2015-Mar-29 23:29N 30°47' W 122°15'1516.1
2015-Mar-29 22:33N 30°58' W 122°27'3515.9
2015-Mar-29 20:23N 31°20' W 122°59'1315.8
2015-Mar-29 19:32N 31°28' W 123°12'1615.8
2015-Mar-29 18:32N 31°37' W 123°27'2115.8
2015-Mar-29 17:13N 31°50' W 123°46'1015.8
2015-Mar-29 16:33N 31°56' W 123°56'12315.4
2015-Mar-29 08:33N 33°10' W 125°53'1615.6
2015-Mar-29 07:33N 33°18' W 126°09'1615.5
2015-Mar-29 06:33N 33°28' W 126°23'6415.8
2015-Mar-29 02:33N 34°06' W 127°24'2016.3
2015-Mar-29 01:19N 34°18' W 127°43'1216.1
2015-Mar-29 00:33N 34°26' W 127°55'1616.2
2015-Mar-28 23:33N 34°36' W 128°11'1816.3
2015-Mar-28 22:28N 34°46' W 128°28'1516.3
2015-Mar-28 21:33N 34°55' W 128°43'1616.1
2015-Mar-28 20:33N 35°05' W 128°58'1616.0
2015-Mar-28 19:33N 35°14' W 129°14'  
Track history (hours):
 
Tides and Currents Weather Stations Pressure Air Temp Water Temp Dewpoint Dewpoint Depression Visibility Wind Speed Wind Dir Waves Ship Positions

MOL Paramount

Last reported at 2015-Mar-30 11:31 UTC. Time now 2015-Mar-30 13:02 UTC.
Position N 28°20' W 119°44'.

Length 293 m; draft 13.5 m.

Type: Cargo ship. MMSI: 371519000.

Date/timePositionNaut miles runAvg speedWind from/ knotsBaromVisibWave heightAir tempDewpointWater temp
2015-Mar-30 11:31N 28°20' W 119°44'1516.1
2015-Mar-30 10:33N 28°31' W 119°56'1616.2
2015-Mar-30 09:33N 28°43' W 120°08'1616.1
2015-Mar-30 08:33N 28°55' W 120°21'1616.3
2015-Mar-30 07:33N 29°07' W 120°33'1916.2
2015-Mar-30 06:23N 29°21' W 120°48'1316.1
2015-Mar-30 05:33N 29°32' W 120°58'1716.1
2015-Mar-30 04:28N 29°45' W 121°11'1617.9
2015-Mar-30 03:33N 29°57' W 121°24'1817.7
2015-Mar-30 02:33N 30°10' W 121°37'1616.3
2015-Mar-30 01:33N 30°22' W 121°50'1716.2
2015-Mar-30 00:32N 30°35' W 122°03'1716.1
2015-Mar-29 23:29N 30°47' W 122°15'1516.1
2015-Mar-29 22:33N 30°58' W 122°27'3515.9
2015-Mar-29 20:23N 31°20' W 122°59'1315.8
2015-Mar-29 19:32N 31°28' W 123°12'1615.8
2015-Mar-29 18:32N 31°37' W 123°27'2115.8
2015-Mar-29 17:13N 31°50' W 123°46'1015.8
2015-Mar-29 16:33N 31°56' W 123°56'12315.4
2015-Mar-29 08:33N 33°10' W 125°53'1615.6
2015-Mar-29 07:33N 33°18' W 126°09'1615.5
2015-Mar-29 06:33N 33°28' W 126°23'6415.8
2015-Mar-29 02:33N 34°06' W 127°24'2016.3
2015-Mar-29 01:19N 34°18' W 127°43'1216.1
2015-Mar-29 00:33N 34°26' W 127°55'1616.2
2015-Mar-28 23:33N 34°36' W 128°11'1816.3
2015-Mar-28 22:28N 34°46' W 128°28'1516.3
2015-Mar-28 21:33N 34°55' W 128°43'1616.1
2015-Mar-28 20:33N 35°05' W 128°58'1616.0
2015-Mar-28 19:33N 35°14' W 129°14'  

Dump ship's entire track history